Plano's Hourly Summary for Sunday, March 19, 2017
Hour Temp
(f)
RH
(%)
Solar Rad.
(MJ/m2)
Rainfall
(in)
Wind
(mph)
3/19/2017 12:00 AM 69 67 0 0 1.17
3/19/2017 1:00 AM 67 71 0 0 0.41
3/19/2017 2:00 AM 66 76 0 0 0.41
3/19/2017 3:00 AM 64 80 0 0 0.3
3/19/2017 4:00 AM 64 81 0 0 0.55
3/19/2017 5:00 AM 64 82 0 0 1.12
3/19/2017 6:00 AM 64 82 0 0 1.3
3/19/2017 7:00 AM 65 84 0 0 2.18
3/19/2017 8:00 AM 64 85 0.03 0 1.22
3/19/2017 9:00 AM 65 79 0.35 0 1.29
3/19/2017 10:00 AM 68 76 0.75 0 5.1
3/19/2017 11:00 AM 68 71 1.32 0 5.58
3/19/2017 12:00 PM 71 66 2.01 0 4.84
3/19/2017 1:00 PM 75 57 2.76 0 5.75
3/19/2017 2:00 PM 78 53 2.95 0 6.03
3/19/2017 3:00 PM 79 50 2.85 0 6.49
3/19/2017 4:00 PM 81 48 2.4 0 6.52
3/19/2017 5:00 PM 82 46 2.08 0 6.58
3/19/2017 6:00 PM 81 47 1.31 0 6.5
3/19/2017 7:00 PM 80 50 0.65 0 6.09
3/19/2017 8:00 PM 77 53 0.07 0 5.96
3/19/2017 9:00 PM 75 58 0 0 5.59
3/19/2017 10:00 PM 74 58 0 0 4.88
3/19/2017 11:00 PM 73 56 0 0 4.92
Data Summary 71 65 19.53 0.00 3.78